Time;durP1;ratioP1;P1;durP2;ratioP2;P2;SDS_P1;SDS_P2;PMS_P1;PMS_P2;Temp;Humidity;BMP_temperature;BMP_pressure;BME280_temperature;BME280_humidity;BME280_pressure;Samples;Min_cycle;Max_cycle;Signal;HPM_P1;HPM_P2
2021/07/04 00:00:48;;;;;;;5.20;4.15;;;18.00;99.90;;;;;;4977592;28;20596;-84
2021/07/04 00:03:14;;;;;;;8.07;4.80;;;18.10;99.90;;;;;;4977721;28;20490;-84
2021/07/04 00:05:43;;;;;;;7.22;4.10;;;18.10;99.90;;;;;;4977723;28;20026;-84
2021/07/04 00:08:12;;;;;;;11.07;4.30;;;18.10;99.90;;;;;;4977615;28;20026;-84
2021/07/04 00:10:54;;;;;;;6.65;4.20;;;18.10;99.90;;;;;;4977568;28;20069;-84
2021/07/04 00:13:21;;;;;;;8.55;4.38;;;18.10;99.90;;;;;;4995093;28;20022;-85
2021/07/04 00:15:48;;;;;;;5.95;4.50;;;18.00;99.90;;;;;;4977576;28;20386;-85
2021/07/04 00:18:17;;;;;;;6.70;4.22;;;17.90;99.90;;;;;;4977459;28;20027;-84
2021/07/04 00:20:43;;;;;;;5.47;4.35;;;17.90;99.90;;;;;;4977436;28;20023;-84
2021/07/04 00:23:09;;;;;;;5.25;4.30;;;17.80;99.90;;;;;;4977414;28;20494;-84
2021/07/04 00:25:36;;;;;;;8.93;3.90;;;17.80;99.90;;;;;;4977326;28;20026;-84
2021/07/04 00:28:02;;;;;;;5.78;3.97;;;17.80;99.90;;;;;;4977292;28;20462;-85
2021/07/04 00:30:28;;;;;;;6.28;4.03;;;17.70;99.90;;;;;;4977030;28;20029;-84
2021/07/04 00:32:54;;;;;;;5.13;3.83;;;17.80;99.90;;;;;;4977248;28;20038;-85
2021/07/04 00:35:21;;;;;;;6.93;4.75;;;17.90;99.90;;;;;;4977176;28;20029;-85
2021/07/04 00:37:49;;;;;;;6.88;3.92;;;17.90;99.90;;;;;;4977734;28;20042;-85
2021/07/04 00:40:17;;;;;;;7.50;4.15;;;17.90;99.90;;;;;;4977109;28;20030;-85
2021/07/04 00:42:43;;;;;;;6.75;4.20;;;17.80;99.90;;;;;;4977082;28;20559;-84
2021/07/04 00:45:12;;;;;;;5.22;3.90;;;17.80;99.90;;;;;;4994500;28;20080;-84
2021/07/04 00:47:38;;;;;;;4.78;3.90;;;17.90;99.90;;;;;;4976915;28;20089;-85
2021/07/04 00:50:05;;;;;;;8.80;4.10;;;18.00;99.90;;;;;;4976960;28;20030;-84
2021/07/04 00:52:31;;;;;;;6.72;3.85;;;18.10;99.90;;;;;;4976912;28;20027;-84
2021/07/04 00:54:57;;;;;;;7.68;3.83;;;18.10;99.90;;;;;;4976880;28;20033;-85
2021/07/04 00:57:23;;;;;;;9.80;4.35;;;18.00;99.90;;;;;;4994287;28;20034;-85
2021/07/04 00:59:49;;;;;;;6.28;3.60;;;18.10;99.90;;;;;;4976518;28;20058;-85
2021/07/04 01:02:14;;;;;;;8.10;4.10;;;18.10;99.90;;;;;;4994254;28;20038;-85
2021/07/04 01:04:40;;;;;;;6.20;4.40;;;18.00;99.90;;;;;;4994224;28;20030;-85
2021/07/04 01:07:06;;;;;;;6.95;3.97;;;17.90;99.90;;;;;;4994092;28;20069;-85
2021/07/04 01:09:32;;;;;;;8.88;4.05;;;17.80;99.90;;;;;;4994359;28;20102;-85
2021/07/04 01:11:58;;;;;;;5.72;4.28;;;17.80;99.90;;;;;;4976657;28;20030;-84
2021/07/04 01:14:25;;;;;;;6.20;3.90;;;17.80;99.90;;;;;;4994096;28;20037;-84
2021/07/04 01:16:51;;;;;;;7.10;3.65;;;17.90;99.90;;;;;;4976622;28;20113;-85
2021/07/04 01:19:17;;;;;;;6.65;3.45;;;18.00;99.90;;;;;;4994001;28;20026;-84
2021/07/04 01:21:45;;;;;;;5.97;4.40;;;18.20;99.90;;;;;;4976539;28;20077;-85
2021/07/04 01:24:11;;;;;;;13.02;4.40;;;18.20;99.90;;;;;;4993963;28;20363;-85
2021/07/04 01:26:38;;;;;;;6.80;3.85;;;18.30;99.90;;;;;;4976445;28;20401;-85
2021/07/04 01:29:05;;;;;;;6.68;3.90;;;18.30;99.90;;;;;;4976455;28;20027;-84
2021/07/04 01:31:31;;;;;;;5.25;4.28;;;18.40;99.90;;;;;;4993911;28;20032;-84
2021/07/04 01:33:57;;;;;;;7.13;4.20;;;18.20;99.90;;;;;;4976472;28;20022;-85
2021/07/04 01:36:23;;;;;;;6.93;3.80;;;18.20;99.90;;;;;;4976438;28;20033;-84
2021/07/04 01:38:49;;;;;;;7.65;4.57;;;18.00;99.90;;;;;;4976431;28;20409;-84
2021/07/04 01:41:15;;;;;;;11.95;4.35;;;17.90;99.90;;;;;;4976398;28;20026;-85
2021/07/04 01:43:41;;;;;;;8.05;4.75;;;17.90;99.90;;;;;;4995913;28;20025;-84
2021/07/04 01:46:07;;;;;;;8.15;4.38;;;17.80;99.90;;;;;;4980252;28;20389;-84
2021/07/04 01:48:33;;;;;;;9.23;4.68;;;17.80;99.90;;;;;;4997693;28;20026;-84
2021/07/04 01:50:59;;;;;;;8.10;4.35;;;17.80;99.90;;;;;;4980237;28;20054;-84
2021/07/04 01:53:24;;;;;;;9.20;4.38;;;17.80;99.90;;;;;;4980010;28;20029;-84
2021/07/04 01:55:51;;;;;;;11.95;4.68;;;17.70;99.90;;;;;;4980074;28;20084;-85
2021/07/04 01:58:16;;;;;;;8.05;4.40;;;17.60;99.90;;;;;;4980018;28;20077;-85
2021/07/04 02:00:44;;;;;;;7.57;4.68;;;17.60;99.90;;;;;;4979238;28;20039;-85
2021/07/04 02:03:11;;;;;;;5.38;4.40;;;17.60;99.90;;;;;;4981845;28;20486;-85
2021/07/04 02:05:38;;;;;;;9.50;4.32;;;17.60;99.90;;;;;;5003094;28;20030;-84
2021/07/04 02:08:05;;;;;;;10.57;4.18;;;17.70;99.90;;;;;;4983103;28;20030;-84
2021/07/04 02:10:34;;;;;;;6.72;4.45;;;17.80;99.90;;;;;;4979254;28;20033;-85
2021/07/04 02:13:01;;;;;;;8.23;4.80;;;17.80;99.90;;;;;;4996147;28;20046;-85
2021/07/04 02:15:29;;;;;;;8.00;4.07;;;17.80;99.90;;;;;;4978575;28;20157;-85
2021/07/04 02:17:56;;;;;;;9.40;4.28;;;17.80;99.90;;;;;;4978468;28;20022;-84
2021/07/04 02:20:37;;;;;;;9.05;4.05;;;17.70;99.90;;;;;;4978456;28;20027;-85
2021/07/04 02:23:13;;;;;;;9.38;4.10;;;17.60;99.90;;;;;;4996240;28;20025;-85
2021/07/04 02:25:41;;;;;;;6.50;4.13;;;17.50;99.90;;;;;;4978435;28;20118;-85
2021/07/04 02:28:08;;;;;;;8.45;4.05;;;17.60;99.90;;;;;;4978262;28;20041;-85
2021/07/04 02:30:34;;;;;;;6.75;4.40;;;17.60;99.90;;;;;;4995750;28;20425;-85
2021/07/04 02:33:03;;;;;;;10.75;4.35;;;17.60;99.90;;;;;;4978251;28;20043;-84
2021/07/04 02:35:31;;;;;;;7.07;4.32;;;17.70;99.90;;;;;;4978184;28;20117;-85
2021/07/04 02:37:57;;;;;;;7.90;4.10;;;17.80;99.90;;;;;;4978187;28;20033;-85
2021/07/04 02:40:23;;;;;;;6.68;4.20;;;17.90;99.90;;;;;;4995935;28;20511;-84
2021/07/04 02:42:49;;;;;;;6.22;4.05;;;17.90;99.90;;;;;;4978114;28;20363;-85
2021/07/04 02:45:16;;;;;;;10.40;5.05;;;17.80;99.90;;;;;;4995498;28;20029;-85
2021/07/04 02:47:41;;;;;;;5.03;4.35;;;17.80;99.90;;;;;;4995462;28;20026;-85
2021/07/04 02:50:09;;;;;;;8.45;3.92;;;17.70;99.90;;;;;;4978080;28;20393;-85
2021/07/04 02:52:35;;;;;;;5.35;4.40;;;17.90;99.90;;;;;;4977927;28;20097;-85
2021/07/04 02:55:00;;;;;;;4.90;4.30;;;17.90;99.90;;;;;;4977529;28;20022;-85
2021/07/04 02:57:26;;;;;;;8.27;4.88;;;17.80;99.90;;;;;;4977825;28;20022;-85
2021/07/04 02:59:52;;;;;;;9.90;4.93;;;17.80;99.90;;;;;;4956010;28;1132127;-85
2021/07/04 03:02:20;;;;;;;8.98;5.20;;;17.80;99.90;;;;;;4979020;28;20108;-85
2021/07/04 03:04:46;;;;;;;9.95;5.15;;;17.80;99.90;;;;;;4996314;28;20023;-85
2021/07/04 03:07:12;;;;;;;8.65;5.22;;;17.80;99.90;;;;;;4978804;28;20029;-85
2021/07/04 03:09:39;;;;;;;8.18;5.22;;;17.90;99.90;;;;;;4996264;28;20022;-84
2021/07/04 03:12:06;;;;;;;8.07;5.40;;;17.90;99.90;;;;;;4978790;28;20026;-85
2021/07/04 03:14:32;;;;;;;7.05;5.28;;;17.90;99.90;;;;;;4996183;28;20089;-85
2021/07/04 03:16:58;;;;;;;7.63;4.88;;;17.90;99.90;;;;;;4978897;28;20056;-84
2021/07/04 03:19:24;;;;;;;11.38;6.00;;;17.80;99.90;;;;;;4996080;28;20178;-85
2021/07/04 03:21:49;;;;;;;7.40;5.70;;;17.70;99.90;;;;;;4996060;28;20033;-84
2021/07/04 03:24:15;;;;;;;13.02;6.60;;;17.70;99.90;;;;;;4978510;28;20129;-85
2021/07/04 03:26:41;;;;;;;9.25;5.93;;;17.50;99.90;;;;;;4978459;28;20030;-84
2021/07/04 03:29:07;;;;;;;8.75;4.57;;;17.70;99.90;;;;;;4978734;28;20033;-84
2021/07/04 03:31:33;;;;;;;7.63;5.53;;;17.80;99.90;;;;;;4978354;28;20397;-85
2021/07/04 03:33:58;;;;;;;9.05;5.70;;;17.80;99.90;;;;;;4995810;28;20034;-85
2021/07/04 03:36:24;;;;;;;8.07;4.95;;;17.80;99.90;;;;;;4978248;28;20026;-85
2021/07/04 03:38:50;;;;;;;6.07;5.10;;;17.80;99.90;;;;;;4995712;28;20406;-85
2021/07/04 03:41:15;;;;;;;6.53;4.80;;;18.00;99.90;;;;;;4978296;28;20363;-84
2021/07/04 03:43:41;;;;;;;6.90;4.78;;;18.00;99.90;;;;;;4978150;28;20077;-84
2021/07/04 03:46:07;;;;;;;8.45;4.38;;;17.90;99.90;;;;;;4978145;28;20033;-84
2021/07/04 03:48:33;;;;;;;5.95;5.18;;;17.90;99.90;;;;;;4978048;28;20116;-85
2021/07/04 03:50:59;;;;;;;12.38;4.65;;;17.70;99.90;;;;;;4977998;28;20022;-85
2021/07/04 03:53:24;;;;;;;9.02;4.68;;;17.60;99.90;;;;;;4978244;28;20041;-84
2021/07/04 03:55:50;;;;;;;8.70;4.35;;;17.70;99.90;;;;;;4978001;28;20054;-85
2021/07/04 03:58:16;;;;;;;6.90;4.30;;;17.60;99.90;;;;;;4977934;28;20026;-85
2021/07/04 04:00:41;;;;;;;4.88;4.22;;;17.70;99.90;;;;;;4977530;28;20092;-85
2021/07/04 04:03:07;;;;;;;7.53;4.15;;;17.70;99.90;;;;;;4977806;28;20037;-85
2021/07/04 04:05:33;;;;;;;8.05;4.35;;;17.70;99.90;;;;;;4977018;28;20030;-85
2021/07/04 04:07:58;;;;;;;5.40;3.80;;;17.70;99.90;;;;;;4977693;28;20031;-84
2021/07/04 04:10:25;;;;;;;10.27;4.00;;;17.80;99.90;;;;;;4977646;28;20033;-84
2021/07/04 04:12:50;;;;;;;8.13;4.00;;;17.80;99.90;;;;;;4995031;28;20026;-85
2021/07/04 04:15:16;;;;;;;11.65;4.40;;;17.70;99.90;;;;;;4995000;28;20101;-84
2021/07/04 04:17:42;;;;;;;7.38;4.47;;;17.60;99.90;;;;;;4995094;28;20096;-85
2021/07/04 04:20:08;;;;;;;6.68;3.60;;;17.60;99.90;;;;;;4984101;28;20057;-85
2021/07/04 04:22:35;;;;;;;10.02;4.95;;;17.80;99.90;;;;;;4982976;28;20215;-85
2021/07/04 04:25:02;;;;;;;10.15;5.07;;;17.70;99.90;;;;;;4977961;28;20023;-85
2021/07/04 04:27:27;;;;;;;8.57;4.68;;;17.60;99.90;;;;;;4977579;28;20037;-84
2021/07/04 04:29:54;;;;;;;9.90;4.60;;;17.50;99.90;;;;;;4977382;28;20019;-84
2021/07/04 04:32:19;;;;;;;12.55;4.93;;;17.70;99.90;;;;;;4994801;28;20038;-84
2021/07/04 04:34:47;;;;;;;7.80;4.18;;;17.80;99.90;;;;;;4977289;28;20018;-84
2021/07/04 04:37:13;;;;;;;8.30;5.10;;;17.80;99.90;;;;;;4977208;28;20540;-85
2021/07/04 04:39:39;;;;;;;8.70;4.45;;;17.80;99.90;;;;;;4977131;28;20054;-85
2021/07/04 04:42:05;;;;;;;7.47;4.80;;;17.90;99.90;;;;;;4977139;28;20398;-85
2021/07/04 04:44:31;;;;;;;7.57;4.38;;;17.80;99.90;;;;;;4994528;28;20026;-84
2021/07/04 04:46:56;;;;;;;6.65;4.80;;;17.80;99.90;;;;;;4976975;28;20030;-85
2021/07/04 04:49:22;;;;;;;7.57;4.97;;;17.70;99.90;;;;;;4994717;28;20018;-84
2021/07/04 04:51:48;;;;;;;7.93;4.65;;;17.80;99.90;;;;;;4977822;28;20177;-85
2021/07/04 04:54:13;;;;;;;9.02;5.13;;;17.90;99.90;;;;;;4976954;28;20083;-84
2021/07/04 04:56:39;;;;;;;10.10;4.80;;;18.00;99.90;;;;;;4976877;28;20478;-84
2021/07/04 04:59:05;;;;;;;8.93;4.82;;;17.90;99.90;;;;;;4976875;28;20113;-84
2021/07/04 05:01:30;;;;;;;7.65;4.65;;;17.80;99.90;;;;;;4976585;28;20046;-85
2021/07/04 05:03:56;;;;;;;13.27;5.70;;;17.80;99.90;;;;;;4976767;28;20050;-85
2021/07/04 05:06:22;;;;;;;7.10;4.85;;;17.70;99.90;;;;;;4976768;28;20057;-85
2021/07/04 05:08:48;;;;;;;8.48;4.93;;;17.70;99.90;;;;;;4976605;28;20034;-84
2021/07/04 05:11:13;;;;;;;9.52;4.60;;;17.80;99.90;;;;;;4976902;28;20026;-85
2021/07/04 05:13:39;;;;;;;6.05;4.10;;;17.70;99.90;;;;;;4976695;28;20433;-85
2021/07/04 05:16:05;;;;;;;8.95;4.78;;;17.90;99.90;;;;;;4976564;28;20494;-85
2021/07/04 05:18:31;;;;;;;6.70;5.18;;;18.00;99.90;;;;;;4976501;28;20390;-85
2021/07/04 05:20:58;;;;;;;5.35;4.38;;;17.80;99.90;;;;;;4976801;28;20031;-85
2021/07/04 05:23:23;;;;;;;10.57;5.00;;;17.90;99.90;;;;;;4976497;28;20409;-85
2021/07/04 05:25:49;;;;;;;8.48;4.63;;;17.90;99.90;;;;;;4976578;28;20027;-85
2021/07/04 05:28:16;;;;;;;7.43;4.40;;;18.00;99.90;;;;;;4976434;28;20489;-85
2021/07/04 05:30:42;;;;;;;5.82;4.35;;;18.00;99.90;;;;;;4976394;28;20390;-85
2021/07/04 05:33:08;;;;;;;9.98;5.03;;;18.10;99.90;;;;;;4976417;28;20018;-84
2021/07/04 05:35:34;;;;;;;9.45;4.40;;;18.10;99.90;;;;;;4976409;28;20039;-85
2021/07/04 05:38:00;;;;;;;6.55;4.60;;;18.20;99.90;;;;;;4976401;28;20537;-84
2021/07/04 05:40:26;;;;;;;5.82;4.22;;;18.30;99.90;;;;;;4976352;28;20023;-85
2021/07/04 05:42:52;;;;;;;5.60;3.90;;;18.30;99.90;;;;;;4976318;28;20446;-85
2021/07/04 05:45:26;;;;;;;8.13;4.82;;;18.40;99.90;;;;;;4993796;28;20029;-85
2021/07/04 05:47:53;;;;;;;6.22;4.28;;;18.20;99.90;;;;;;4993725;28;20062;-85
2021/07/04 05:50:19;;;;;;;8.07;4.55;;;17.90;99.90;;;;;;4993697;28;20026;-85
2021/07/04 05:52:49;;;;;;;6.28;4.78;;;18.00;99.90;;;;;;4976253;28;20437;-85
2021/07/04 05:55:15;;;;;;;6.55;4.47;;;18.00;99.90;;;;;;4976259;28;20026;-85
2021/07/04 05:57:40;;;;;;;7.00;4.75;;;18.10;99.90;;;;;;4993654;28;20038;-84
2021/07/04 06:00:09;;;;;;;8.52;4.18;;;18.10;99.90;;;;;;4975955;28;20399;-84
2021/07/04 06:02:35;;;;;;;8.50;4.13;;;18.20;99.90;;;;;;4976456;28;20041;-85
2021/07/04 06:05:00;;;;;;;5.85;4.68;;;18.20;99.90;;;;;;4976112;28;20027;-85
2021/07/04 06:07:26;;;;;;;6.90;4.43;;;18.10;99.90;;;;;;4976084;28;20393;-85
2021/07/04 06:09:52;;;;;;;11.57;4.85;;;18.10;99.90;;;;;;4976209;28;20023;-85
2021/07/04 06:12:17;;;;;;;7.22;3.92;;;18.10;99.90;;;;;;4976137;28;20540;-85
2021/07/04 06:14:43;;;;;;;5.45;4.30;;;18.10;99.90;;;;;;4993514;28;20022;-85
2021/07/04 06:17:10;;;;;;;7.20;4.22;;;18.10;99.90;;;;;;4976057;28;20482;-85
2021/07/04 06:19:36;;;;;;;7.75;4.35;;;18.40;99.90;;;;;;4976051;28;20041;-85
2021/07/04 06:22:02;;;;;;;6.75;4.32;;;18.50;99.90;;;;;;4975970;28;20389;-85
2021/07/04 06:24:28;;;;;;;8.57;5.00;;;18.70;99.90;;;;;;4975966;28;20028;-85
2021/07/04 06:26:54;;;;;;;5.50;4.68;;;18.70;99.90;;;;;;4975850;28;20035;-84
2021/07/04 06:29:20;;;;;;;7.45;4.50;;;18.90;99.90;;;;;;4977294;28;20122;-84
2021/07/04 06:31:45;;;;;;;6.63;4.32;;;19.20;99.90;;;;;;4979422;28;20034;-84
2021/07/04 06:34:11;;;;;;;6.60;4.00;;;19.30;99.90;;;;;;4979697;28;20065;-84
2021/07/04 06:36:37;;;;;;;10.85;4.50;;;19.40;99.90;;;;;;4981223;28;20018;-84
2021/07/04 06:39:03;;;;;;;6.90;4.57;;;19.30;99.90;;;;;;4998043;28;20097;-84
2021/07/04 06:41:29;;;;;;;7.53;4.47;;;19.40;99.90;;;;;;4979464;28;20030;-85
2021/07/04 06:43:54;;;;;;;5.38;3.75;;;19.40;99.90;;;;;;4979211;28;20117;-85
2021/07/04 06:46:20;;;;;;;8.70;4.43;;;19.60;99.90;;;;;;4979304;28;20153;-84
2021/07/04 06:48:46;;;;;;;7.45;4.53;;;19.60;99.90;;;;;;4980058;28;20030;-84
2021/07/04 06:51:12;;;;;;;8.45;4.70;;;19.70;99.90;;;;;;4979115;28;20027;-83
2021/07/04 06:53:38;;;;;;;9.98;4.40;;;19.80;99.90;;;;;;4996814;28;20145;-84
2021/07/04 06:56:04;;;;;;;8.27;4.88;;;19.90;99.90;;;;;;4996485;28;20023;-83
2021/07/04 06:58:30;;;;;;;8.55;4.50;;;20.10;99.90;;;;;;4978934;28;20037;-83
2021/07/04 07:00:56;;;;;;;4.82;4.13;;;20.10;99.90;;;;;;4978758;28;20502;-83
2021/07/04 07:03:22;;;;;;;9.60;4.65;;;20.20;99.90;;;;;;4978835;28;20041;-83
2021/07/04 07:05:47;;;;;;;9.38;5.18;;;20.10;99.90;;;;;;4978813;28;20052;-83
2021/07/04 07:08:13;;;;;;;9.18;4.35;;;20.00;99.90;;;;;;4996263;28;20039;-83
2021/07/04 07:10:39;;;;;;;8.18;4.35;;;20.00;99.90;;;;;;4978803;28;20029;-83
2021/07/04 07:13:05;;;;;;;7.35;4.60;;;20.10;99.90;;;;;;4978688;28;20022;-83
2021/07/04 07:15:30;;;;;;;6.63;4.65;;;20.00;99.90;;;;;;4978657;28;20029;-83
2021/07/04 07:17:56;;;;;;;6.95;4.72;;;19.70;99.90;;;;;;4978631;28;20022;-83
2021/07/04 07:20:24;;;;;;;6.00;4.25;;;19.70;99.90;;;;;;4978605;28;20022;-83
2021/07/04 07:22:50;;;;;;;6.60;4.32;;;19.80;99.90;;;;;;4978585;28;20031;-83
2021/07/04 07:25:17;;;;;;;7.38;3.90;;;19.80;99.90;;;;;;4978513;28;20076;-82
2021/07/04 07:27:43;;;;;;;7.07;3.92;;;19.80;99.90;;;;;;4978387;28;20034;-83
2021/07/04 07:30:10;;;;;;;6.65;4.07;;;19.70;99.90;;;;;;4978350;28;20459;-83
2021/07/04 07:32:36;;;;;;;7.30;4.03;;;19.70;99.90;;;;;;4996110;28;20029;-84
2021/07/04 07:35:06;;;;;;;6.18;4.40;;;19.80;99.90;;;;;;4978321;28;20022;-83
2021/07/04 07:37:32;;;;;;;5.97;4.10;;;20.10;99.90;;;;;;4978160;28;20041;-83
2021/07/04 07:39:58;;;;;;;6.65;4.20;;;20.30;99.90;;;;;;4977575;28;20031;-85
2021/07/04 07:42:23;;;;;;;7.13;4.30;;;20.50;99.90;;;;;;4995105;28;20486;-83
2021/07/04 07:44:49;;;;;;;4.55;3.95;;;20.20;99.90;;;;;;4995626;28;20504;-83
2021/07/04 07:47:15;;;;;;;4.18;3.50;;;20.30;99.90;;;;;;4995499;28;20034;-83
2021/07/04 07:49:41;;;;;;;6.72;3.75;;;20.50;99.90;;;;;;4978071;28;20050;-83
2021/07/04 07:52:07;;;;;;;4.88;3.72;;;20.60;99.90;;;;;;4995524;28;20026;-83
2021/07/04 07:54:33;;;;;;;5.18;3.67;;;20.70;99.90;;;;;;4977950;28;20029;-84
2021/07/04 07:57:02;;;;;;;5.35;3.53;;;20.90;99.90;;;;;;4977877;28;20030;-83
2021/07/04 07:59:31;;;;;;;6.00;3.45;;;21.00;99.90;;;;;;4977738;28;20034;-83
2021/07/04 08:01:57;;;;;;;6.28;3.88;;;21.00;99.90;;;;;;4977583;28;20065;-82
2021/07/04 08:04:23;;;;;;;4.78;3.60;;;21.20;99.90;;;;;;4995232;28;20034;-83
2021/07/04 08:06:49;;;;;;;5.05;3.38;;;21.20;99.90;;;;;;4977783;28;20390;-82
2021/07/04 08:09:15;;;;;;;8.52;3.90;;;21.10;99.90;;;;;;4995178;28;20022;-84
2021/07/04 08:11:41;;;;;;;5.53;3.20;;;21.20;99.90;;;;;;4995082;28;20030;-82
2021/07/04 08:14:06;;;;;;;6.07;3.38;;;21.40;99.90;;;;;;4977549;28;20030;-81
2021/07/04 08:16:32;;;;;;;4.03;3.42;;;21.50;99.90;;;;;;4977601;28;20072;-82
2021/07/04 08:18:58;;;;;;;9.82;3.83;;;21.60;99.90;;;;;;4977764;28;20038;-83
2021/07/04 08:21:26;;;;;;;5.43;3.70;;;21.70;99.90;;;;;;4995164;28;20023;-81
2021/07/04 08:23:51;;;;;;;8.52;3.88;;;21.90;99.90;;;;;;4977416;28;20385;-82
2021/07/04 08:26:17;;;;;;;5.35;3.80;;;22.00;99.90;;;;;;4994844;28;20031;-83
2021/07/04 08:28:43;;;;;;;6.18;3.90;;;21.90;99.90;;;;;;4994715;28;20367;-83
2021/07/04 08:31:09;;;;;;;5.75;3.63;;;22.10;99.90;;;;;;4977363;28;20049;-83
2021/07/04 08:33:34;;;;;;;9.63;3.65;;;22.00;99.90;;;;;;4977301;28;20508;-83
2021/07/04 08:36:00;;;;;;;6.38;3.58;;;22.10;99.90;;;;;;4977219;28;20076;-83
2021/07/04 08:38:26;;;;;;;6.60;3.90;;;22.30;99.90;;;;;;4977192;28;20023;-83
2021/07/04 08:40:52;;;;;;;5.90;4.30;;;22.20;99.90;;;;;;4977090;28;20058;-83
2021/07/04 08:43:27;;;;;;;5.35;4.07;;;22.30;99.90;;;;;;4977091;28;20037;-83
2021/07/04 08:45:54;;;;;;;5.60;4.22;;;22.80;99.90;;;;;;4977070;28;20033;-83
2021/07/04 08:48:20;;;;;;;5.10;3.78;;;23.00;99.90;;;;;;4976899;28;20023;-83
2021/07/04 08:50:45;;;;;;;5.88;3.67;;;23.10;99.90;;;;;;4977621;28;20030;-83
2021/07/04 08:53:11;;;;;;;5.00;3.70;;;23.10;99.90;;;;;;4976632;28;20050;-83
2021/07/04 08:55:37;;;;;;;5.20;3.80;;;23.00;99.90;;;;;;4976920;28;20110;-82
2021/07/04 08:58:02;;;;;;;5.43;3.42;;;22.90;99.90;;;;;;4976814;28;20545;-83
2021/07/04 09:00:28;;;;;;;5.60;3.70;;;22.80;99.90;;;;;;4976591;28;20046;-83
2021/07/04 09:02:54;;;;;;;6.50;3.20;;;22.80;99.90;;;;;;4976769;28;20028;-82
2021/07/04 09:05:20;;;;;;;7.90;3.90;;;22.80;99.90;;;;;;4976793;28;20085;-82
2021/07/04 09:07:47;;;;;;;5.45;4.00;;;22.40;99.90;;;;;;4976671;28;20034;-82
2021/07/04 09:10:16;;;;;;;4.97;3.75;;;22.30;99.90;;;;;;4976646;28;20058;-82
2021/07/04 09:12:54;;;;;;;5.07;3.67;;;22.00;99.90;;;;;;4994073;28;20042;-82
2021/07/04 09:15:22;;;;;;;4.93;3.50;;;21.90;99.90;;;;;;4976625;28;20030;-83
2021/07/04 09:17:51;;;;;;;6.13;4.18;;;22.10;99.90;;;;;;4976598;28;20121;-82
2021/07/04 09:20:32;;;;;;;5.45;3.42;;;22.10;99.90;;;;;;4994020;28;20022;-82
2021/07/04 09:22:59;;;;;;;5.10;3.67;;;22.10;99.90;;;;;;4994008;28;20026;-83
2021/07/04 09:25:39;;;;;;;8.77;3.95;;;22.10;99.90;;;;;;4976472;28;20124;-82
2021/07/04 09:28:12;;;;;;;5.43;4.10;;;22.30;99.90;;;;;;4976454;28;20026;-82
2021/07/04 09:30:42;;;;;;;6.82;3.95;;;22.30;99.90;;;;;;4993946;28;20030;-83
2021/07/04 09:33:18;;;;;;;5.00;3.42;;;22.30;99.90;;;;;;4976357;28;20042;-82
2021/07/04 09:35:54;;;;;;;5.15;3.65;;;22.20;99.90;;;;;;4976427;28;20069;-83
2021/07/04 09:38:20;;;;;;;5.65;4.35;;;22.20;99.90;;;;;;4993825;28;20458;-83
2021/07/04 09:40:47;;;;;;;5.50;4.35;;;22.30;99.90;;;;;;4993813;28;20105;-83
2021/07/04 09:43:15;;;;;;;5.55;3.75;;;22.40;99.90;;;;;;4976323;28;20026;-83
2021/07/04 09:46:04;;;;;;;6.18;3.75;;;22.30;99.90;;;;;;4993730;28;20026;-83
2021/07/04 09:48:29;;;;;;;5.95;3.75;;;22.10;99.90;;;;;;4976255;28;20030;-83
2021/07/04 09:50:56;;;;;;;4.38;3.33;;;22.30;99.90;;;;;;4976301;28;20030;-82
2021/07/04 09:53:30;;;;;;;5.13;3.65;;;22.80;99.90;;;;;;4976268;28;20023;-82
2021/07/04 09:56:06;;;;;;;;;;;22.80;99.90;;;;;;4976713;28;20026;-82
2021/07/04 09:58:35;;;;;;;5.10;3.63;;;23.00;99.90;;;;;;4976289;28;19913;-83
2021/07/04 10:01:00;;;;;;;7.28;4.15;;;23.00;99.90;;;;;;4975990;28;20042;-83
2021/07/04 10:03:26;;;;;;;7.75;3.70;;;22.90;99.90;;;;;;4976196;28;20510;-81
2021/07/04 10:05:55;;;;;;;4.95;3.30;;;22.90;99.90;;;;;;4980081;28;20061;-82
2021/07/04 10:08:25;;;;;;;3.95;3.50;;;22.70;99.90;;;;;;4979879;28;20088;-83
2021/07/04 10:11:12;;;;;;;6.40;4.00;;;22.90;99.90;;;;;;4997433;28;20504;-83
2021/07/04 10:13:42;;;;;;;4.13;3.65;;;23.10;99.90;;;;;;4996938;28;20050;-83
2021/07/04 10:16:11;;;;;;;4.85;3.78;;;23.10;99.90;;;;;;4980675;28;20049;-81
2021/07/04 10:18:38;;;;;;;4.05;3.40;;;23.00;99.90;;;;;;4997128;28;20030;-82
2021/07/04 10:21:04;;;;;;;5.97;3.58;;;22.90;99.90;;;;;;4997261;28;20086;-83
2021/07/04 10:23:30;;;;;;;4.95;3.50;;;23.10;99.90;;;;;;4979686;28;20513;-83
2021/07/04 10:25:58;;;;;;;5.00;3.42;;;23.10;99.90;;;;;;4979616;28;20022;-82
2021/07/04 10:28:41;;;;;;;6.35;3.92;;;23.20;99.90;;;;;;4979601;28;20501;-83
2021/07/04 10:31:30;;;;;;;5.53;3.50;;;23.10;99.90;;;;;;4997038;28;20532;-82
2021/07/04 10:34:07;;;;;;;3.97;3.58;;;23.00;99.90;;;;;;4979477;28;20545;-81
2021/07/04 10:36:59;;;;;;;4.38;3.38;;;23.00;99.90;;;;;;4996915;28;20479;-83
2021/07/04 10:39:30;;;;;;;4.63;3.67;;;22.60;99.90;;;;;;4979383;28;20465;-83
2021/07/04 10:42:05;;;;;;;4.95;3.78;;;22.60;99.90;;;;;;4997139;28;20037;-82
2021/07/04 10:44:49;;;;;;;8.30;3.95;;;22.40;99.90;;;;;;4979264;28;20049;-82
2021/07/04 10:47:16;;;;;;;8.18;4.25;;;22.20;99.90;;;;;;4979235;28;20528;-82
2021/07/04 10:49:48;;;;;;;4.57;3.78;;;22.10;99.90;;;;;;4996691;28;20022;-83
2021/07/04 10:52:20;;;;;;;3.97;3.58;;;21.90;99.90;;;;;;4996699;28;20470;-83
2021/07/04 10:54:50;;;;;;;5.78;4.45;;;22.10;99.90;;;;;;4979836;28;20030;-82
2021/07/04 10:57:31;;;;;;;5.63;3.85;;;21.90;99.90;;;;;;4979070;28;20121;-83
2021/07/04 11:00:00;;;;;;;6.60;4.30;;;21.80;99.90;;;;;;4978678;28;20026;-82
2021/07/04 11:02:48;;;;;;;4.53;3.95;;;21.80;99.90;;;;;;4979020;28;20496;-82
2021/07/04 11:05:40;;;;;;;3.75;3.35;;;22.10;99.90;;;;;;4980071;28;20030;-83
2021/07/04 11:08:21;;;;;;;4.30;3.55;;;22.30;99.90;;;;;;4978782;28;20113;-84
2021/07/04 11:10:50;;;;;;;5.00;3.22;;;22.70;99.90;;;;;;4996563;28;20386;-83
2021/07/04 11:13:15;;;;;;;3.60;3.08;;;22.90;99.90;;;;;;4978754;28;20049;-82
2021/07/04 11:15:50;;;;;;;4.00;3.15;;;22.80;99.90;;;;;;4978500;28;20023;-82
2021/07/04 11:18:20;;;;;;;3.13;2.83;;;22.90;99.90;;;;;;4978714;28;20026;-83
2021/07/04 11:20:48;;;;;;;3.97;3.08;;;22.90;99.90;;;;;;4978617;28;20053;-82
2021/07/04 11:23:23;;;;;;;9.05;3.38;;;22.90;99.90;;;;;;4978628;28;20454;-82
2021/07/04 11:25:54;;;;;;;3.55;2.67;;;22.90;99.90;;;;;;4978638;28;20033;-83
2021/07/04 11:28:22;;;;;;;6.22;4.43;;;22.80;99.90;;;;;;4979290;28;20029;-83
2021/07/04 11:30:50;;;;;;;5.70;3.30;;;22.80;99.90;;;;;;4978350;28;20474;-81
2021/07/04 11:33:25;;;;;;;3.50;3.20;;;22.70;99.90;;;;;;4978443;28;20548;-82
2021/07/04 11:35:53;;;;;;;4.22;3.50;;;22.60;99.90;;;;;;4995772;28;20029;-82
2021/07/04 11:38:21;;;;;;;4.57;3.08;;;22.70;99.90;;;;;;4978946;28;20438;-82
2021/07/04 11:40:48;;;;;;;4.40;3.20;;;22.60;99.90;;;;;;4978275;28;20030;-82
2021/07/04 11:43:15;;;;;;;3.88;3.13;;;22.40;99.90;;;;;;4995680;28;20117;-83
2021/07/04 11:46:08;;;;;;;7.30;3.40;;;22.20;99.90;;;;;;4978530;28;20026;-82
2021/07/04 11:48:46;;;;;;;6.10;3.75;;;22.20;99.90;;;;;;4992427;28;20081;-82
2021/07/04 11:51:31;;;;;;;4.35;3.30;;;22.20;99.90;;;;;;4995599;28;20049;-81
2021/07/04 11:54:08;;;;;;;5.32;3.22;;;22.20;99.90;;;;;;4978154;28;20027;-82
2021/07/04 11:56:35;;;;;;;4.13;3.53;;;22.20;99.90;;;;;;4995793;28;20022;-83
2021/07/04 11:59:27;;;;;;;7.07;3.22;;;22.50;99.90;;;;;;4977990;28;20026;-83
2021/07/04 12:01:56;;;;;;;3.90;3.20;;;22.70;99.90;;;;;;4977710;28;20043;-83
2021/07/04 12:04:35;;;;;;;5.35;3.22;;;23.10;99.90;;;;;;4977926;28;20512;-83
2021/07/04 12:07:12;;;;;;;5.40;3.35;;;23.50;99.90;;;;;;4977869;28;20022;-83
2021/07/04 12:09:40;;;;;;;5.60;3.42;;;23.70;99.90;;;;;;4995249;28;20501;-82
2021/07/04 12:12:17;;;;;;;4.40;3.15;;;23.60;99.90;;;;;;4977723;28;20027;-82
2021/07/04 12:14:44;;;;;;;5.75;3.92;;;23.40;99.90;;;;;;4995173;28;20029;-82
2021/07/04 12:17:27;;;;;;;4.30;3.65;;;23.20;99.90;;;;;;4977590;28;20048;-83
2021/07/04 12:19:59;;;;;;;4.35;3.58;;;23.50;99.90;;;;;;4995076;28;20101;-83
2021/07/04 12:22:29;;;;;;;3.70;3.20;;;23.60;99.90;;;;;;4995250;28;20026;-82
2021/07/04 12:24:55;;;;;;;5.18;3.50;;;24.60;99.90;;;;;;4977444;28;20027;-83
2021/07/04 12:27:38;;;;;;;2.90;2.05;;;25.40;99.90;;;;;;4976691;28;20030;-82
2021/07/04 12:30:11;;;;;;;3.25;2.17;;;26.80;99.90;;;;;;4994874;28;20030;-82
2021/07/04 12:32:44;;;;;;;2.70;2.17;;;26.70;99.90;;;;;;4977359;28;20038;-81
2021/07/04 12:35:26;;;;;;;2.80;2.10;;;26.50;99.90;;;;;;4994777;28;20447;-81
2021/07/04 12:37:53;;;;;;;3.90;2.35;;;26.10;99.90;;;;;;4977268;28;20379;-81
2021/07/04 12:40:29;;;;;;;3.97;2.08;;;25.40;99.90;;;;;;4994614;28;20041;-82
2021/07/04 12:43:08;;;;;;;3.30;2.08;;;25.10;99.90;;;;;;4994673;28;20074;-82
2021/07/04 12:45:34;;;;;;;1.90;1.70;;;24.60;99.90;;;;;;4994876;28;20030;-81
2021/07/04 12:48:04;;;;;;;2.92;2.10;;;24.30;99.90;;;;;;4977014;28;20390;-82
2021/07/04 12:50:53;;;;;;;2.33;2.13;;;24.30;99.90;;;;;;4977668;28;20122;-83